KEAU/EAU METAR and TAF weather

Enter ICAO airport designator
Station Type Date Time Source
KEAU METAR 2022/01/26 14:56 UTC NOAA

KEAU 261456Z 21006KT 10SM CLR M25/M28 A3030 RMK AO2 SLP292 I3000 T12501278 56016


Station Type Date Time Source
KEAU Decoded METAR 2022/01/26 14:56 UTC NOAA

EAU CLAIRE CHIPPEWA VALLEY, WI, United States (KEAU) 44-52N 091-29W
Jan 26, 2022 - 09:56 AM EST / 2022.01.26 1456 UTC
Wind: from the SSW (210 degrees) at 7 MPH (6 KT):0
Visibility: 10 mile(s):0
Sky conditions: clear
Temperature: -13.0 F (-25.0 C)
Windchill: -29 F (-34 C):2
Dew Point: -18.0 F (-27.8 C)
Relative Humidity: 77%
Pressure (altimeter): 30.3 in. Hg (1026 hPa)
Pressure tendency: 0.05 inches (1.6 hPa) lower than three hours ago
ob: KEAU 261456Z 21006KT 10SM CLR M25/M28 A3030 RMK AO2 SLP292 I3000 T12501278 56016
cycle: 15

Station Type Date Time Source
KEAU TAF 2022/01/26 12:54 UTC NOAA

TAF KEAU 261151Z 2612/2712 20004KT P6SM FEW250
FM261800 19012G20KT P6SM BKN200
FM262100 19016G27KT P6SM BKN200
FM270600 21014KT P6SM BKN045
FM270800 22010KT P6SM SCT025 BKN045

Example: see airport list